Time;durP1;ratioP1;P1;durP2;ratioP2;P2;SDS_P1;SDS_P2;PMS_P1;PMS_P2;Temp;Humidity;BMP_temperature;BMP_pressure;BME280_temperature;BME280_humidity;BME280_pressure;Samples;Min_cycle;Max_cycle;Signal;HPM_P1;HPM_P2
2021/07/26 00:00:45;;;;;;;16.63;13.88;;;24.50;73.60;;;;;;5036670;28;20021;-63
2021/07/26 00:03:11;;;;;;;15.23;13.65;;;24.50;73.90;;;;;;5037316;28;20532;-61
2021/07/26 00:05:36;;;;;;;15.32;13.82;;;24.50;74.00;;;;;;5041222;28;20123;-60
2021/07/26 00:08:02;;;;;;;15.82;14.23;;;24.50;74.10;;;;;;5041077;28;20037;-60
2021/07/26 00:10:28;;;;;;;16.35;13.85;;;24.50;74.20;;;;;;5039862;28;20066;-60
2021/07/26 00:12:53;;;;;;;15.65;14.05;;;24.50;74.20;;;;;;5041543;28;20041;-60
2021/07/26 00:15:19;;;;;;;14.40;13.00;;;24.50;74.20;;;;;;5040113;28;20409;-60
2021/07/26 00:17:44;;;;;;;14.88;13.43;;;24.50;74.40;;;;;;5040583;28;20021;-60
2021/07/26 00:20:11;;;;;;;14.18;12.73;;;24.50;74.50;;;;;;5040313;28;20029;-60
2021/07/26 00:22:38;;;;;;;17.80;14.25;;;24.50;74.60;;;;;;5041225;28;20121;-60
2021/07/26 00:25:06;;;;;;;15.70;14.10;;;24.50;74.70;;;;;;5040787;28;20036;-60
2021/07/26 00:27:32;;;;;;;17.92;14.18;;;24.50;74.60;;;;;;5040454;28;20457;-60
2021/07/26 00:29:57;;;;;;;14.70;13.18;;;24.50;74.70;;;;;;5041676;28;20045;-60
2021/07/26 00:32:23;;;;;;;15.32;13.73;;;24.40;74.80;;;;;;5041644;28;20032;-60
2021/07/26 00:34:49;;;;;;;16.30;13.52;;;24.40;74.80;;;;;;5040616;28;20026;-60
2021/07/26 00:37:14;;;;;;;14.95;13.27;;;24.40;74.90;;;;;;5036636;28;20022;-60
2021/07/26 00:39:40;;;;;;;14.73;13.23;;;24.40;74.90;;;;;;5040947;28;20036;-60
2021/07/26 00:42:06;;;;;;;16.20;13.90;;;24.40;75.00;;;;;;5040857;28;20026;-60
2021/07/26 00:44:33;;;;;;;15.52;14.00;;;24.40;75.20;;;;;;5040934;28;20399;-60
2021/07/26 00:47:00;;;;;;;14.32;12.82;;;24.40;75.40;;;;;;5041863;28;20026;-60
2021/07/26 00:49:27;;;;;;;14.45;13.05;;;24.40;75.50;;;;;;5040863;28;20056;-60
2021/07/26 00:51:57;;;;;;;14.85;12.73;;;24.40;75.50;;;;;;5037724;28;20026;-60
2021/07/26 00:54:36;;;;;;;11.40;10.25;;;24.40;75.70;;;;;;5038347;28;20465;-63
2021/07/26 00:57:04;;;;;;;13.80;10.85;;;24.40;75.10;;;;;;5040646;28;20493;-61
2021/07/26 00:59:30;;;;;;;12.98;10.82;;;24.40;75.10;;;;;;5040577;28;20021;-61
2021/07/26 01:01:57;;;;;;;12.07;10.88;;;24.50;75.30;;;;;;5037987;28;20433;-61
2021/07/26 01:04:23;;;;;;;11.05;9.95;;;24.50;75.20;;;;;;5040563;28;20029;-61
2021/07/26 01:06:49;;;;;;;11.98;10.77;;;24.50;75.10;;;;;;5039079;28;20036;-61
2021/07/26 01:09:15;;;;;;;12.05;10.63;;;24.50;75.10;;;;;;5040132;28;20438;-61
2021/07/26 01:11:42;;;;;;;11.77;10.50;;;24.50;75.10;;;;;;5038824;28;20036;-61
2021/07/26 01:14:08;;;;;;;12.15;10.45;;;24.50;74.90;;;;;;5040326;28;20033;-60
2021/07/26 01:16:33;;;;;;;13.60;11.20;;;24.50;74.90;;;;;;5039595;28;20469;-60
2021/07/26 01:19:01;;;;;;;12.50;11.20;;;24.60;75.00;;;;;;5039677;28;20029;-60
2021/07/26 01:21:28;;;;;;;10.85;9.57;;;24.60;74.70;;;;;;5032440;28;20056;-60
2021/07/26 01:23:55;;;;;;;11.70;10.05;;;24.60;74.70;;;;;;5036815;28;20050;-60
2021/07/26 01:26:23;;;;;;;10.70;9.50;;;24.60;74.60;;;;;;5048522;28;20030;-60
2021/07/26 01:28:52;;;;;;;11.32;10.13;;;24.60;74.40;;;;;;5039905;28;20029;-60
2021/07/26 01:31:18;;;;;;;14.10;10.73;;;24.60;75.20;;;;;;5038589;28;20039;-60
2021/07/26 01:33:45;;;;;;;12.55;10.80;;;24.70;74.50;;;;;;5039862;28;20050;-60
2021/07/26 01:36:11;;;;;;;13.93;10.73;;;24.60;74.40;;;;;;5039258;28;20074;-60
2021/07/26 01:38:38;;;;;;;12.60;11.30;;;24.60;74.20;;;;;;5039881;28;20100;-60
2021/07/26 01:41:04;;;;;;;15.57;11.00;;;24.60;74.40;;;;;;5039553;28;20478;-60
2021/07/26 01:43:34;;;;;;;14.45;11.63;;;24.60;74.50;;;;;;5039429;28;20045;-60
2021/07/26 01:46:15;;;;;;;13.20;10.73;;;24.60;74.70;;;;;;5039357;28;20026;-60
2021/07/26 01:48:52;;;;;;;13.13;9.35;;;24.60;74.70;;;;;;5039107;28;20089;-61
2021/07/26 01:51:39;;;;;;;8.77;7.88;;;24.60;74.40;;;;;;5030884;28;20022;-60
2021/07/26 01:54:05;;;;;;;9.90;7.90;;;24.60;73.20;;;;;;5034829;28;20030;-60
2021/07/26 01:56:32;;;;;;;9.48;7.03;;;24.60;72.60;;;;;;5037914;28;20026;-60
2021/07/26 01:58:58;;;;;;;9.23;7.13;;;24.60;72.10;;;;;;5038119;28;20028;-60
2021/07/26 02:01:24;;;;;;;7.93;6.72;;;24.70;71.60;;;;;;5037082;28;20061;-60
2021/07/26 02:03:50;;;;;;;8.75;6.20;;;24.70;71.20;;;;;;5038195;28;20044;-60
2021/07/26 02:06:15;;;;;;;7.60;6.50;;;24.70;70.80;;;;;;5037565;28;20029;-60
2021/07/26 02:08:41;;;;;;;8.30;7.10;;;24.70;70.70;;;;;;5038263;28;20068;-61
2021/07/26 02:11:07;;;;;;;8.80;6.45;;;24.70;70.70;;;;;;5042370;28;20025;-61
2021/07/26 02:13:36;;;;;;;8.50;6.40;;;24.70;70.70;;;;;;5040190;28;20029;-61
2021/07/26 02:16:02;;;;;;;9.23;7.53;;;24.70;70.30;;;;;;5038806;28;20021;-61
2021/07/26 02:18:27;;;;;;;8.90;7.10;;;24.70;70.20;;;;;;5038504;28;20104;-61
2021/07/26 02:20:53;;;;;;;8.07;6.72;;;24.70;70.10;;;;;;5035701;28;20087;-63
2021/07/26 02:23:19;;;;;;;8.52;6.82;;;24.70;70.00;;;;;;5035384;28;20018;-61
2021/07/26 02:25:44;;;;;;;9.43;7.00;;;24.80;69.90;;;;;;5038662;28;20025;-61
2021/07/26 02:28:10;;;;;;;9.50;6.63;;;24.70;69.70;;;;;;5038244;28;20026;-61
2021/07/26 02:30:36;;;;;;;8.77;7.13;;;24.70;69.50;;;;;;5038158;28;20029;-61
2021/07/26 02:33:02;;;;;;;11.57;8.55;;;24.80;69.80;;;;;;5037276;28;20052;-61
2021/07/26 02:35:28;;;;;;;13.40;10.60;;;24.80;70.70;;;;;;5038189;28;20070;-61
2021/07/26 02:37:54;;;;;;;15.23;11.88;;;24.80;71.70;;;;;;5035698;28;20034;-63
2021/07/26 02:40:20;;;;;;;11.85;10.43;;;24.80;72.30;;;;;;5038030;28;20021;-61
2021/07/26 02:42:46;;;;;;;10.27;7.70;;;24.80;72.50;;;;;;5037997;28;20037;-61
2021/07/26 02:45:12;;;;;;;8.15;7.35;;;24.80;71.80;;;;;;5037723;28;20033;-61
2021/07/26 02:47:38;;;;;;;13.07;7.22;;;24.80;70.80;;;;;;5037887;28;20378;-61
2021/07/26 02:50:04;;;;;;;7.88;6.75;;;24.80;70.50;;;;;;5037527;28;20036;-61
2021/07/26 02:52:30;;;;;;;9.95;7.63;;;24.80;70.20;;;;;;5036537;28;20060;-61
2021/07/26 02:54:56;;;;;;;8.45;6.97;;;24.80;69.90;;;;;;5037687;28;20018;-61
2021/07/26 02:57:22;;;;;;;10.63;7.50;;;24.80;70.10;;;;;;5035761;28;20505;-61
2021/07/26 02:59:48;;;;;;;9.13;7.13;;;24.80;69.70;;;;;;5037391;28;20021;-61
2021/07/26 03:02:14;;;;;;;9.55;7.63;;;24.80;69.40;;;;;;5037813;28;20085;-61
2021/07/26 03:04:39;;;;;;;9.90;6.78;;;24.80;69.40;;;;;;5036346;28;20045;-61
2021/07/26 03:07:05;;;;;;;11.85;7.47;;;24.80;69.40;;;;;;5036377;28;20033;-61
2021/07/26 03:09:31;;;;;;;8.65;7.75;;;24.80;69.60;;;;;;5036743;28;20025;-61
2021/07/26 03:11:56;;;;;;;10.27;8.05;;;24.90;69.60;;;;;;5036618;28;20496;-61
2021/07/26 03:14:22;;;;;;;9.10;7.90;;;24.80;69.70;;;;;;5034593;28;20418;-61
2021/07/26 03:16:48;;;;;;;9.80;8.13;;;24.80;69.70;;;;;;5032165;28;20021;-61
2021/07/26 03:19:14;;;;;;;11.30;7.93;;;24.90;69.70;;;;;;5034009;28;20044;-61
2021/07/26 03:21:39;;;;;;;12.35;8.20;;;24.90;70.00;;;;;;5029002;28;20100;-61
2021/07/26 03:24:06;;;;;;;9.38;7.95;;;24.90;70.30;;;;;;5035372;28;20044;-61
2021/07/26 03:26:31;;;;;;;10.18;8.45;;;24.90;70.30;;;;;;5033759;28;20060;-61
2021/07/26 03:28:57;;;;;;;9.45;7.68;;;24.90;70.50;;;;;;5033840;28;20033;-61
2021/07/26 03:31:23;;;;;;;12.57;9.48;;;24.90;70.80;;;;;;5034587;28;20119;-61
2021/07/26 03:33:49;;;;;;;10.45;8.63;;;24.90;71.00;;;;;;5034117;28;20025;-61
2021/07/26 03:36:14;;;;;;;10.80;9.13;;;25.00;71.40;;;;;;5032466;28;20378;-61
2021/07/26 03:38:40;;;;;;;10.98;8.73;;;25.00;71.60;;;;;;5031987;28;20385;-61
2021/07/26 03:41:06;;;;;;;12.82;9.13;;;25.10;71.60;;;;;;5034711;28;20026;-61
2021/07/26 03:43:32;;;;;;;11.90;9.25;;;25.10;71.70;;;;;;5033849;28;20025;-61
2021/07/26 03:45:58;;;;;;;13.00;8.70;;;25.20;71.90;;;;;;5033124;28;20022;-61
2021/07/26 03:48:24;;;;;;;10.80;8.70;;;25.20;72.20;;;;;;5035291;28;20032;-61
2021/07/26 03:50:49;;;;;;;12.75;9.40;;;25.20;72.50;;;;;;5034275;28;20395;-61
2021/07/26 03:53:18;;;;;;;15.32;9.13;;;25.30;72.80;;;;;;5034545;28;20089;-61
2021/07/26 03:55:44;;;;;;;12.82;8.60;;;25.50;73.50;;;;;;5034961;28;20382;-60
2021/07/26 03:58:09;;;;;;;11.98;9.07;;;25.80;74.00;;;;;;5034180;28;20031;-61
2021/07/26 04:00:35;;;;;;;9.82;8.43;;;26.10;73.50;;;;;;5033369;28;20029;-61
2021/07/26 04:05:52;;;;;;;10.70;8.02;;;27.10;72.60;;;;;;5031995;28;20028;-61
2021/07/26 04:08:29;;;;;;;11.93;7.20;;;27.80;71.30;;;;;;5030336;28;20499;-61
2021/07/26 04:11:15;;;;;;;8.90;7.30;;;28.60;69.80;;;;;;5033549;28;20069;-61
2021/07/26 04:13:41;;;;;;;7.88;6.78;;;29.50;67.80;;;;;;5034342;28;20025;-61
2021/07/26 04:16:07;;;;;;;7.13;5.95;;;30.40;65.90;;;;;;5031302;28;20105;-61
2021/07/26 04:18:33;;;;;;;8.77;6.35;;;31.10;64.00;;;;;;5031965;28;20480;-61
2021/07/26 04:21:05;;;;;;;9.50;6.38;;;31.90;62.70;;;;;;5032034;28;20065;-61
2021/07/26 04:23:31;;;;;;;9.13;6.70;;;32.50;60.50;;;;;;5032860;28;20432;-61
2021/07/26 04:25:56;;;;;;;6.80;5.90;;;33.20;59.00;;;;;;5033792;28;20087;-61
2021/07/26 04:28:22;;;;;;;8.63;5.90;;;33.80;57.90;;;;;;5032615;28;20026;-61
2021/07/26 04:30:48;;;;;;;7.43;6.25;;;34.40;56.80;;;;;;5033745;28;20022;-61
2021/07/26 04:33:13;;;;;;;8.10;5.63;;;34.90;55.70;;;;;;5030954;28;20021;-61
2021/07/26 04:35:39;;;;;;;9.10;7.05;;;35.40;55.10;;;;;;5030352;28;20091;-61
2021/07/26 04:38:04;;;;;;;8.80;7.25;;;35.90;54.20;;;;;;5032020;28;20108;-61
2021/07/26 04:40:30;;;;;;;8.63;6.93;;;36.30;53.30;;;;;;5031842;28;20100;-61
2021/07/26 04:42:56;;;;;;;9.07;7.15;;;36.70;52.70;;;;;;5031346;28;20539;-61
2021/07/26 04:45:22;;;;;;;10.07;7.40;;;37.10;52.00;;;;;;5030875;28;20026;-61
2021/07/26 04:47:47;;;;;;;8.55;7.25;;;37.50;51.10;;;;;;5032623;28;20022;-61
2021/07/26 04:50:13;;;;;;;9.45;7.82;;;37.80;50.50;;;;;;5035512;28;20057;-61
2021/07/26 04:52:39;;;;;;;10.90;8.35;;;38.20;50.10;;;;;;5036775;28;20021;-61
2021/07/26 04:55:06;;;;;;;12.35;8.00;;;38.40;49.50;;;;;;5037186;28;20108;-61
2021/07/26 04:57:31;;;;;;;9.43;7.15;;;38.70;48.90;;;;;;5035438;28;20027;-61
2021/07/26 04:59:57;;;;;;;9.30;6.90;;;38.90;48.50;;;;;;5034723;28;20033;-61
2021/07/26 05:02:23;;;;;;;7.25;6.55;;;39.20;48.10;;;;;;5036818;28;20385;-61
2021/07/26 05:04:49;;;;;;;7.38;6.68;;;39.50;47.70;;;;;;5037844;28;20124;-60
2021/07/26 05:07:14;;;;;;;6.72;6.03;;;39.70;47.20;;;;;;5033542;28;20447;-61
2021/07/26 05:09:43;;;;;;;6.95;6.25;;;39.90;46.90;;;;;;5038241;28;20072;-59
2021/07/26 05:12:12;;;;;;;9.45;6.47;;;40.10;46.50;;;;;;5037393;28;20018;-59
2021/07/26 05:14:43;;;;;;;6.78;5.80;;;40.20;46.10;;;;;;5033414;28;20057;-58
2021/07/26 05:17:10;;;;;;;7.10;6.30;;;40.10;45.90;;;;;;5033991;28;20108;-58
2021/07/26 05:19:35;;;;;;;7.82;6.10;;;39.80;45.80;;;;;;5032937;28;20021;-57
2021/07/26 05:22:03;;;;;;;8.48;6.22;;;39.70;46.10;;;;;;5023965;28;20052;-57
2021/07/26 05:24:28;;;;;;;8.10;5.80;;;39.50;46.30;;;;;;5029501;28;20503;-58
2021/07/26 05:26:59;;;;;;;7.95;5.97;;;39.40;46.10;;;;;;5027804;28;20061;-58
2021/07/26 05:29:25;;;;;;;8.13;6.10;;;39.10;45.90;;;;;;5033856;28;20029;-60
2021/07/26 05:31:50;;;;;;;8.68;6.20;;;38.80;45.80;;;;;;5028006;28;20620;-60
2021/07/26 05:34:16;;;;;;;9.27;6.72;;;38.60;45.90;;;;;;5034836;28;20021;-60
2021/07/26 05:36:42;;;;;;;9.23;7.15;;;38.20;46.50;;;;;;5032025;28;20369;-63
2021/07/26 05:39:07;;;;;;;7.88;6.32;;;37.60;47.40;;;;;;5026145;28;20026;-63
2021/07/26 05:41:33;;;;;;;6.90;6.20;;;37.00;48.20;;;;;;5027329;28;20029;-64
2021/07/26 05:43:58;;;;;;;8.52;6.40;;;36.40;49.00;;;;;;5027399;28;20038;-64
2021/07/26 05:46:24;;;;;;;9.43;6.63;;;35.70;50.10;;;;;;5024515;28;20516;-64
2021/07/26 05:48:49;;;;;;;7.72;6.38;;;35.10;51.00;;;;;;5020088;28;20030;-64
2021/07/26 05:51:15;;;;;;;9.05;6.82;;;34.60;52.10;;;;;;5018368;28;20037;-64
2021/07/26 05:53:41;;;;;;;10.50;7.28;;;34.20;53.10;;;;;;5016780;28;20125;-65
2021/07/26 05:56:08;;;;;;;8.95;6.75;;;33.70;53.70;;;;;;5018847;28;20052;-65
2021/07/26 05:58:42;;;;;;;9.65;7.25;;;33.30;54.50;;;;;;5027395;28;20026;-65
2021/07/26 06:01:22;;;;;;;9.20;7.32;;;33.00;55.20;;;;;;5017091;28;20040;-65
2021/07/26 06:03:50;;;;;;;11.02;7.82;;;32.70;55.60;;;;;;5022393;28;20117;-64
2021/07/26 06:06:17;;;;;;;10.70;7.22;;;32.40;56.00;;;;;;5028976;28;20068;-64
2021/07/26 06:08:43;;;;;;;10.10;7.85;;;32.20;56.60;;;;;;5032779;28;20033;-55
2021/07/26 06:11:09;;;;;;;9.52;7.10;;;32.00;57.60;;;;;;5024956;28;20044;-56
2021/07/26 06:13:34;;;;;;;11.07;7.65;;;31.80;57.60;;;;;;5026052;28;20032;-56
2021/07/26 06:16:06;;;;;;;9.48;7.38;;;31.60;57.80;;;;;;5026699;28;20200;-52
2021/07/26 06:18:32;;;;;;;8.77;7.57;;;31.40;58.20;;;;;;5023573;28;20097;-54
2021/07/26 06:20:58;;;;;;;8.98;7.25;;;31.30;59.00;;;;;;5022841;28;20135;-56
2021/07/26 06:23:26;;;;;;;12.15;8.13;;;31.10;59.60;;;;;;5026548;28;20037;-55
2021/07/26 06:25:51;;;;;;;9.88;7.22;;;31.00;60.00;;;;;;5026700;28;20041;-53
2021/07/26 06:28:17;;;;;;;9.48;7.53;;;30.80;60.20;;;;;;5025123;28;20051;-52
2021/07/26 06:30:43;;;;;;;8.35;7.32;;;30.70;60.30;;;;;;5022085;28;20033;-55
2021/07/26 06:33:09;;;;;;;9.55;7.55;;;30.60;60.60;;;;;;5028224;28;20041;-52
2021/07/26 06:35:35;;;;;;;9.05;7.43;;;30.40;61.10;;;;;;5026366;28;20034;-53
2021/07/26 06:38:01;;;;;;;8.57;7.65;;;30.30;61.60;;;;;;5022342;28;20078;-55
2021/07/26 06:40:28;;;;;;;9.65;8.10;;;30.20;61.60;;;;;;5022365;28;20022;-55
2021/07/26 06:42:54;;;;;;;8.48;7.25;;;30.10;62.20;;;;;;5016509;28;20219;-53
2021/07/26 06:45:20;;;;;;;10.25;7.90;;;30.00;62.50;;;;;;5026042;28;20196;-51
2021/07/26 06:47:45;;;;;;;9.07;7.80;;;29.90;62.50;;;;;;5025876;28;20112;-55
2021/07/26 06:50:11;;;;;;;10.27;7.15;;;29.80;62.90;;;;;;5018124;28;20033;-55
2021/07/26 06:52:37;;;;;;;8.80;7.68;;;29.70;62.90;;;;;;5016349;28;20033;-55
2021/07/26 06:55:03;;;;;;;13.40;7.78;;;29.60;63.20;;;;;;5019306;28;20064;-51
2021/07/26 06:57:29;;;;;;;9.82;7.63;;;29.60;63.60;;;;;;5019782;28;20123;-56
2021/07/26 06:59:55;;;;;;;9.35;7.30;;;29.50;63.70;;;;;;5014565;28;20037;-56
2021/07/26 07:02:20;;;;;;;8.05;7.18;;;29.40;64.00;;;;;;5019415;28;20041;-55
2021/07/26 07:04:46;;;;;;;9.95;7.32;;;29.40;63.90;;;;;;5019374;28;20030;-54
2021/07/26 07:07:11;;;;;;;10.88;7.38;;;29.30;64.10;;;;;;5017903;28;20041;-52
2021/07/26 07:09:37;;;;;;;9.05;6.80;;;29.30;64.20;;;;;;5016094;28;20037;-52
2021/07/26 07:12:03;;;;;;;9.70;7.32;;;29.30;64.00;;;;;;5021621;28;20044;-51
2021/07/26 07:14:29;;;;;;;9.10;7.22;;;29.30;64.30;;;;;;5017215;28;20441;-53
2021/07/26 07:16:55;;;;;;;10.52;7.32;;;29.30;64.30;;;;;;5014803;28;20315;-53
2021/07/26 07:19:21;;;;;;;10.70;8.15;;;29.20;64.30;;;;;;5019643;28;20040;-55
2021/07/26 07:21:46;;;;;;;9.30;7.90;;;29.20;64.50;;;;;;5015368;28;20050;-54
2021/07/26 07:24:12;;;;;;;9.25;7.30;;;29.10;64.70;;;;;;5016875;28;20136;-51
2021/07/26 07:26:38;;;;;;;9.82;7.97;;;29.20;64.80;;;;;;5014160;28;20099;-55
2021/07/26 07:29:04;;;;;;;9.80;7.68;;;29.10;64.90;;;;;;5015779;28;20118;-51
2021/07/26 07:31:36;;;;;;;12.20;8.15;;;29.10;65.10;;;;;;5013401;28;20037;-54
2021/07/26 07:34:03;;;;;;;9.88;7.85;;;29.10;66.00;;;;;;5011549;28;20141;-56
2021/07/26 07:36:29;;;;;;;12.50;8.75;;;29.00;65.20;;;;;;5014351;28;20122;-54
2021/07/26 07:38:56;;;;;;;11.10;8.23;;;29.00;65.30;;;;;;5011756;28;20033;-53
2021/07/26 07:41:23;;;;;;;12.57;8.73;;;29.00;65.80;;;;;;5013493;28;20048;-55
2021/07/26 07:43:49;;;;;;;11.07;9.13;;;29.00;65.90;;;;;;5012628;28;20549;-54
2021/07/26 07:46:16;;;;;;;12.80;8.77;;;28.90;66.00;;;;;;5010115;28;20032;-54
2021/07/26 07:48:41;;;;;;;9.70;8.10;;;28.90;66.10;;;;;;5012649;28;20082;-55
2021/07/26 07:51:09;;;;;;;11.82;8.23;;;28.90;66.00;;;;;;5010985;28;20698;-55
2021/07/26 07:53:35;;;;;;;11.07;8.80;;;28.90;66.40;;;;;;5014455;28;20079;-52
2021/07/26 07:56:01;;;;;;;10.52;8.30;;;28.80;66.60;;;;;;5014572;28;20030;-51
2021/07/26 07:58:27;;;;;;;9.57;8.55;;;28.80;66.60;;;;;;5017307;28;20029;-52
2021/07/26 08:00:56;;;;;;;13.25;9.20;;;28.70;67.10;;;;;;5016830;28;20033;-56
2021/07/26 08:03:22;;;;;;;11.13;8.55;;;28.70;67.10;;;;;;5010958;28;20667;-56
2021/07/26 08:05:48;;;;;;;10.85;8.82;;;28.70;67.20;;;;;;5014870;28;20037;-55
2021/07/26 08:08:15;;;;;;;11.95;9.23;;;28.70;67.10;;;;;;5010963;28;20035;-53
2021/07/26 08:10:40;;;;;;;12.07;9.32;;;28.70;67.30;;;;;;5013266;28;20428;-54
2021/07/26 08:13:06;;;;;;;12.05;9.18;;;28.70;67.00;;;;;;5010708;28;20067;-52
2021/07/26 08:15:32;;;;;;;11.35;9.15;;;28.60;67.70;;;;;;5014949;28;20553;-55
2021/07/26 08:17:57;;;;;;;10.68;9.13;;;28.60;66.90;;;;;;5012375;28;20034;-55
2021/07/26 08:20:23;;;;;;;11.52;9.30;;;28.50;67.60;;;;;;5014019;28;20648;-53
2021/07/26 08:22:49;;;;;;;14.75;10.50;;;28.50;68.00;;;;;;5015835;28;20061;-55
2021/07/26 08:25:15;;;;;;;16.70;10.93;;;28.50;68.00;;;;;;5013198;28;20079;-51
2021/07/26 08:27:55;;;;;;;14.05;11.50;;;28.50;68.20;;;;;;5016267;28;20048;-56
2021/07/26 08:30:26;;;;;;;14.10;11.20;;;28.50;68.30;;;;;;5012336;28;20068;-55
2021/07/26 08:32:53;;;;;;;13.38;11.40;;;28.40;68.20;;;;;;5016156;28;20046;-52
2021/07/26 08:35:19;;;;;;;14.77;11.75;;;28.40;68.10;;;;;;5011488;28;20090;-53
2021/07/26 08:37:45;;;;;;;14.43;11.55;;;28.30;68.20;;;;;;5013960;28;20054;-54
2021/07/26 08:40:12;;;;;;;15.27;12.50;;;28.30;68.40;;;;;;5015951;28;20030;-52
2021/07/26 08:42:39;;;;;;;13.05;11.07;;;28.30;68.80;;;;;;5011359;28;20075;-55
2021/07/26 08:45:08;;;;;;;17.63;12.65;;;28.20;68.80;;;;;;5020510;28;20033;-51
2021/07/26 08:47:35;;;;;;;11.57;10.23;;;28.20;69.20;;;;;;5008218;28;20029;-53
2021/07/26 08:50:04;;;;;;;12.68;11.38;;;28.20;69.50;;;;;;5019905;28;20988;-53
2021/07/26 08:52:33;;;;;;;15.70;11.23;;;28.20;69.70;;;;;;5018370;28;20413;-54
2021/07/26 08:55:00;;;;;;;12.88;10.57;;;28.20;69.80;;;;;;5011478;28;20037;-52
2021/07/26 08:57:26;;;;;;;15.20;11.18;;;28.20;69.70;;;;;;5008970;28;20029;-55
2021/07/26 08:59:53;;;;;;;14.75;11.70;;;28.20;69.60;;;;;;5011240;28;20040;-55
2021/07/26 09:02:19;;;;;;;13.88;9.82;;;28.20;69.40;;;;;;5014219;28;20051;-56
2021/07/26 09:04:44;;;;;;;15.30;10.82;;;28.10;69.40;;;;;;5015150;28;20045;-50
2021/07/26 09:07:10;;;;;;;13.82;10.02;;;28.10;69.60;;;;;;5018032;28;20034;-54
2021/07/26 09:09:49;;;;;;;13.20;11.10;;;28.20;69.90;;;;;;5018909;28;23165;-53
2021/07/26 09:12:36;;;;;;;10.93;9.68;;;28.20;69.20;;;;;;5013961;28;20049;-53
2021/07/26 09:15:05;;;;;;;12.93;9.55;;;28.20;68.90;;;;;;5015640;28;20032;-55
2021/07/26 09:17:38;;;;;;;12.80;9.68;;;28.20;69.20;;;;;;5020513;28;20051;-52
2021/07/26 09:20:05;;;;;;;11.15;9.13;;;28.20;68.80;;;;;;5019054;28;20099;-53
2021/07/26 09:22:35;;;;;;;14.77;8.95;;;28.10;68.70;;;;;;5017267;28;20057;-53
2021/07/26 09:25:11;;;;;;;11.52;8.73;;;28.10;68.10;;;;;;5018974;28;20037;-50
2021/07/26 09:27:37;;;;;;;12.02;8.40;;;28.10;67.70;;;;;;5012666;28;20034;-50
2021/07/26 09:30:14;;;;;;;11.05;8.88;;;28.10;67.40;;;;;;5016860;28;20043;-54
2021/07/26 09:32:41;;;;;;;10.75;8.40;;;28.10;67.10;;;;;;5011910;28;20029;-55
2021/07/26 09:35:07;;;;;;;10.05;8.30;;;28.00;67.20;;;;;;5012639;28;20063;-52
2021/07/26 09:37:33;;;;;;;10.68;7.85;;;28.00;66.90;;;;;;5009519;28;20108;-54
2021/07/26 09:40:25;;;;;;;9.75;7.78;;;28.00;66.60;;;;;;5018983;28;20821;-54
2021/07/26 09:42:51;;;;;;;8.38;7.20;;;28.00;66.40;;;;;;5016784;28;20093;-55
2021/07/26 09:45:21;;;;;;;8.00;6.75;;;28.00;65.70;;;;;;5021864;28;20121;-54
2021/07/26 09:48:13;;;;;;;8.40;6.28;;;28.00;65.10;;;;;;5019498;28;20092;-52
2021/07/26 09:50:47;;;;;;;10.25;6.50;;;28.00;64.50;;;;;;5019897;28;20037;-50
2021/07/26 09:53:24;;;;;;;10.05;6.38;;;28.00;63.90;;;;;;5017864;28;20041;-53
2021/07/26 09:56:12;;;;;;;6.97;5.82;;;28.00;63.10;;;;;;5021040;28;20525;-55
2021/07/26 09:58:40;;;;;;;11.07;6.30;;;28.10;63.00;;;;;;5022234;28;20117;-54
2021/07/26 10:01:07;;;;;;;7.43;6.35;;;28.10;62.80;;;;;;5015491;28;20877;-53
2021/07/26 10:03:34;;;;;;;10.55;5.75;;;28.10;62.40;;;;;;5011069;28;20038;-55
2021/07/26 10:06:00;;;;;;;7.72;6.53;;;28.20;61.60;;;;;;5016161;28;20029;-54
2021/07/26 10:08:29;;;;;;;8.43;6.47;;;28.20;61.20;;;;;;5013907;28;20081;-52
2021/07/26 10:10:56;;;;;;;8.68;6.63;;;28.20;60.50;;;;;;5011431;28;20087;-53
2021/07/26 10:13:22;;;;;;;11.30;8.10;;;28.20;61.00;;;;;;5022890;28;20087;-55
2021/07/26 10:15:49;;;;;;;9.68;7.95;;;28.30;60.90;;;;;;5016868;28;20037;-53
2021/07/26 10:18:15;;;;;;;10.15;8.23;;;28.20;61.00;;;;;;5022321;28;20029;-52
2021/07/26 10:20:49;;;;;;;8.77;7.30;;;28.20;60.10;;;;;;5014877;28;20083;-54
2021/07/26 10:23:20;;;;;;;8.77;7.22;;;28.30;60.00;;;;;;5016567;28;20114;-53
2021/07/26 10:25:58;;;;;;;8.55;7.38;;;28.20;60.00;;;;;;5015907;28;20113;-53
2021/07/26 10:28:29;;;;;;;9.60;7.20;;;28.20;60.00;;;;;;5021370;28;20040;-55
2021/07/26 10:30:56;;;;;;;9.48;7.25;;;28.20;59.80;;;;;;5021535;28;20036;-51
2021/07/26 10:33:22;;;;;;;9.07;6.38;;;28.20;59.90;;;;;;5022765;28;20509;-54
2021/07/26 10:35:55;;;;;;;8.07;6.38;;;28.20;59.90;;;;;;5025887;28;20025;-54
2021/07/26 10:38:42;;;;;;;6.55;5.47;;;28.20;60.30;;;;;;5020405;28;20025;-52
2021/07/26 10:41:08;;;;;;;9.85;6.63;;;28.30;60.10;;;;;;5023209;28;20116;-50
2021/07/26 10:43:58;;;;;;;7.30;6.22;;;28.30;60.40;;;;;;5024103;28;20120;-50
2021/07/26 10:46:24;;;;;;;11.93;6.90;;;28.30;61.30;;;;;;5018216;28;20088;-53
2021/07/26 10:48:51;;;;;;;7.72;6.97;;;28.30;61.80;;;;;;5022110;28;20045;-55
2021/07/26 10:51:49;;;;;;;8.50;7.53;;;28.30;61.80;;;;;;5019871;28;20030;-53
2021/07/26 10:54:32;;;;;;;9.80;8.07;;;28.40;62.40;;;;;;5009263;28;20051;-55
2021/07/26 10:57:05;;;;;;;9.68;8.10;;;28.40;63.20;;;;;;5020940;28;20044;-51
2021/07/26 10:59:51;;;;;;;9.48;8.00;;;28.40;62.70;;;;;;5023508;28;20064;-52
2021/07/26 11:02:35;;;;;;;10.25;7.47;;;28.40;62.60;;;;;;5020181;28;20094;-51
2021/07/26 11:05:24;;;;;;;10.15;6.85;;;28.40;61.60;;;;;;5021325;28;20142;-54
2021/07/26 11:08:12;;;;;;;7.82;6.18;;;28.40;60.80;;;;;;5025300;28;20075;-57
2021/07/26 11:10:54;;;;;;;10.98;6.93;;;28.40;60.40;;;;;;5014966;28;20709;-54
2021/07/26 11:13:20;;;;;;;7.80;6.22;;;28.40;61.00;;;;;;5018914;28;20136;-52
2021/07/26 11:15:54;;;;;;;7.13;5.20;;;28.30;60.90;;;;;;5021747;28;20108;-55
2021/07/26 11:18:38;;;;;;;7.72;5.22;;;28.40;59.80;;;;;;5023896;28;20045;-54
2021/07/26 11:21:14;;;;;;;7.53;5.03;;;28.50;59.40;;;;;;5016740;28;20033;-54
2021/07/26 11:23:43;;;;;;;7.63;4.93;;;28.50;59.00;;;;;;5018231;28;20037;-55
2021/07/26 11:26:13;;;;;;;6.20;5.00;;;28.50;58.90;;;;;;5021065;28;20033;-55
2021/07/26 11:28:39;;;;;;;5.60;5.10;;;28.60;58.90;;;;;;5017290;28;20470;-55
2021/07/26 11:31:05;;;;;;;8.25;5.93;;;28.60;58.80;;;;;;5008118;28;20298;-54
2021/07/26 11:33:32;;;;;;;5.78;4.75;;;28.70;59.00;;;;;;5013639;28;20103;-53
2021/07/26 11:35:59;;;;;;;6.60;4.85;;;28.70;58.90;;;;;;5010185;28;20037;-54
2021/07/26 11:38:26;;;;;;;5.70;5.03;;;28.80;58.80;;;;;;5019329;28;20558;-54
2021/07/26 11:40:52;;;;;;;7.13;5.32;;;28.80;58.60;;;;;;5014511;28;20457;-56
2021/07/26 11:43:35;;;;;;;7.97;4.80;;;28.90;58.70;;;;;;5022795;28;20053;-55
2021/07/26 11:46:02;;;;;;;5.03;4.53;;;29.00;59.00;;;;;;5020384;28;20473;-54
2021/07/26 11:48:28;;;;;;;7.25;5.07;;;29.00;59.00;;;;;;5014740;28;20025;-54
2021/07/26 11:50:54;;;;;;;7.05;5.57;;;29.00;58.70;;;;;;5014341;28;20061;-54
2021/07/26 11:53:27;;;;;;;8.90;5.10;;;29.10;58.60;;;;;;5013705;28;20042;-54
2021/07/26 11:55:53;;;;;;;5.35;4.68;;;29.10;58.40;;;;;;5014611;28;20038;-54
2021/07/26 11:58:25;;;;;;;8.07;5.82;;;29.10;58.00;;;;;;5007162;28;20099;-55
2021/07/26 12:00:52;;;;;;;8.32;6.45;;;29.10;58.80;;;;;;5018003;28;20037;-54
2021/07/26 12:03:18;;;;;;;9.60;7.57;;;29.10;59.80;;;;;;5012091;28;20048;-56
2021/07/26 12:05:44;;;;;;;6.72;5.60;;;29.10;59.70;;;;;;5011945;28;20504;-57
2021/07/26 12:08:14;;;;;;;8.73;5.78;;;29.00;58.20;;;;;;5014517;28;20100;-56
2021/07/26 12:10:40;;;;;;;;;;;29.00;58.50;;;;;;5016346;28;20069;-55
2021/07/26 12:13:18;;;;;;;6.00;5.40;;;28.90;59.00;;;;;;5015209;28;19916;-56
2021/07/26 12:15:45;;;;;;;5.60;5.00;;;29.00;58.90;;;;;;5013766;28;20029;-57
2021/07/26 12:18:11;;;;;;;6.55;5.88;;;28.90;58.50;;;;;;5015086;28;20084;-56
2021/07/26 12:20:42;;;;;;;6.43;5.25;;;28.90;58.60;;;;;;5016887;28;20493;-57
2021/07/26 12:23:12;;;;;;;7.40;5.20;;;29.00;58.30;;;;;;5019649;28;20124;-56
2021/07/26 12:25:49;;;;;;;7.68;6.10;;;29.00;59.30;;;;;;5017735;28;20095;-57
2021/07/26 12:28:16;;;;;;;6.90;5.75;;;29.00;59.20;;;;;;5014443;28;20041;-57
2021/07/26 12:30:44;;;;;;;6.22;5.25;;;29.00;59.50;;;;;;5017781;28;20029;-55
2021/07/26 12:33:12;;;;;;;7.65;5.45;;;29.00;59.40;;;;;;5017431;28;20045;-56
2021/07/26 12:35:39;;;;;;;6.28;5.40;;;29.00;59.20;;;;;;5006852;28;20043;-55
2021/07/26 12:38:17;;;;;;;5.78;4.82;;;29.00;59.30;;;;;;5009064;28;20509;-56
2021/07/26 12:40:45;;;;;;;6.07;4.90;;;29.00;58.80;;;;;;5014661;28;20065;-56
2021/07/26 12:43:26;;;;;;;7.22;5.40;;;29.00;58.90;;;;;;5011131;28;20041;-56
2021/07/26 12:46:09;;;;;;;6.47;4.88;;;29.00;57.30;;;;;;5012437;28;20034;-57
2021/07/26 12:48:37;;;;;;;5.82;5.22;;;28.90;55.60;;;;;;5015554;28;20053;-55